Aeroporto :







RITROVATECI SU...

 
LOGIN :

Iscrizione | Disclaimer

   EN    FR    IT 

 









Sommario :    VFR   VFR Marginale   IFR   IFR Intensivo   IFR Molto Intensivo
Visibilità : 
Base nubi : 
>= 8 km
>= 3000ft
5 / 8 km
1000 / 3000 ft
1500m / 5 km
500 / 1000 ft
800 / 1500m
200 / 500 ft
< 800m
< 200 ft
Simboli :   Temporali  Nebbia  Neve Forte  Precipitazioni Forti  Vento > 20 kt






- Altitudine del aeroporto : 118 ft
- Codice IATA : YUL


CYUL - Montréal - Pierre-Elliott-Trudeau Int.

ULTIMO METAR :
  • 111900Z 07007KT 010V080 15SM BKN058 BKN070 OVC100 M04/M13 A3025 RMK SC5AS2AS1 SLP247

METARs OBSOLETI :
  • 111800Z 01008KT 340V050 15SM FEW030 FEW037 SCT080 OVC130 M04/M12 A3026 RMK SC1SC1AS3AS4 SC TR SLP252
  • 111700Z 03007KT 15SM FEW027 SCT038 BKN120 OVC160 M04/M11 A3027 RMK SC1SC3AS2AS3 SC TR SLP255

TAF TAF CYUL
Valido dal 11 a 18 ore il 12 a 18 ore UTC


111738Z 1118/1218 03008KT P6SM SCT020 BKN040 OVC120
FM111900 04010KT P6SM -SN SCT020 OVC030
TEMPO 1119/1120 2SM -SN OVC020
FM112000 04010KT 1SM -SN BKN008 OVC025
TEMPO 1120/1201 3SM -SN OVC025
FM120100 04012G22KT 3/4SM -SN VV006
TEMPO 1201/1210 2SM -SN VV012
FM121000 01010G20KT 11/2SM -SN OVC010
FM121500 32012KT P6SM -SN BKN025
BECMG 1216/1218 28012KT RMK NXT FCST BY 112100Z
ATIS : ENG : +1 514-633-3037 FRA : +1 514-633-3034



MetMap, La meteo Aeronautica in un colpo d'occhio ! - Copyright ORBIFLY Dicembre 2007 - Disclaimer

ORBIFLY MET'MAP TEAM :

Programmazione e sviluppo : Alexandra Zaïnal
Concezione e sviluppo : Baudouin d'Aumeries
Co-Programmazione e sviluppo : Marc-Olivier Méhu
Supporto tecnico e logistico : Manuel Goepfert
Aiuto per la traduzione : Arnaldo La Scala

Contatto : metmap@orbifly.com




FONTI E CREDITI :

   NOAA